sensor_id;sensor_type;location;lat;lon;timestamp;P1;durP1;ratioP1;P2;durP2;ratioP2
22284;SDS011;11311;52.192;20.900;2023-06-14T00:00:54;12.52;;;9.43;;
22284;SDS011;11311;52.192;20.900;2023-06-14T00:03:24;10.85;;;9.10;;
22284;SDS011;11311;52.192;20.900;2023-06-14T00:05:53;15.20;;;10.82;;
22284;SDS011;11311;52.192;20.900;2023-06-14T00:08:22;17.38;;;11.15;;
22284;SDS011;11311;52.192;20.900;2023-06-14T00:10:53;13.30;;;10.75;;
22284;SDS011;11311;52.192;20.900;2023-06-14T00:15:51;17.75;;;11.50;;
22284;SDS011;11311;52.192;20.900;2023-06-14T00:18:22;11.68;;;9.32;;
22284;SDS011;11311;52.192;20.900;2023-06-14T00:20:52;9.88;;;8.88;;
22284;SDS011;11311;52.192;20.900;2023-06-14T00:23:21;10.50;;;9.40;;
22284;SDS011;11311;52.192;20.900;2023-06-14T00:25:49;10.45;;;9.45;;
22284;SDS011;11311;52.192;20.900;2023-06-14T00:28:21;12.10;;;9.27;;
22284;SDS011;11311;52.192;20.900;2023-06-14T00:30:50;11.48;;;9.88;;
22284;SDS011;11311;52.192;20.900;2023-06-14T00:33:20;15.88;;;9.00;;
22284;SDS011;11311;52.192;20.900;2023-06-14T00:35:49;11.30;;;8.75;;
22284;SDS011;11311;52.192;20.900;2023-06-14T00:38:21;9.65;;;8.60;;
22284;SDS011;11311;52.192;20.900;2023-06-14T00:40:49;12.32;;;9.55;;
22284;SDS011;11311;52.192;20.900;2023-06-14T00:43:20;10.40;;;9.03;;
22284;SDS011;11311;52.192;20.900;2023-06-14T00:48:18;10.15;;;8.45;;
22284;SDS011;11311;52.192;20.900;2023-06-14T00:50:48;12.90;;;9.77;;
22284;SDS011;11311;52.192;20.900;2023-06-14T00:55:47;14.07;;;9.57;;
22284;SDS011;11311;52.192;20.900;2023-06-14T00:58:16;13.82;;;9.18;;
22284;SDS011;11311;52.192;20.900;2023-06-14T01:00:47;9.43;;;8.52;;
22284;SDS011;11311;52.192;20.900;2023-06-14T01:05:49;13.80;;;9.70;;
22284;SDS011;11311;52.192;20.900;2023-06-14T01:08:22;11.15;;;8.32;;
22284;SDS011;11311;52.192;20.900;2023-06-14T01:10:59;9.90;;;8.60;;
22284;SDS011;11311;52.192;20.900;2023-06-14T01:13:32;10.15;;;8.65;;
22284;SDS011;11311;52.192;20.900;2023-06-14T01:16:04;10.77;;;8.68;;
22284;SDS011;11311;52.192;20.900;2023-06-14T01:18:34;11.20;;;7.72;;
22284;SDS011;11311;52.192;20.900;2023-06-14T01:21:03;11.52;;;8.57;;
22284;SDS011;11311;52.192;20.900;2023-06-14T01:23:34;12.93;;;8.77;;
22284;SDS011;11311;52.192;20.900;2023-06-14T01:26:04;11.20;;;8.35;;
22284;SDS011;11311;52.192;20.900;2023-06-14T01:28:33;11.65;;;8.32;;
22284;SDS011;11311;52.192;20.900;2023-06-14T01:31:06;10.27;;;8.10;;
22284;SDS011;11311;52.192;20.900;2023-06-14T01:33:35;11.50;;;7.95;;
22284;SDS011;11311;52.192;20.900;2023-06-14T01:36:05;14.13;;;7.95;;
22284;SDS011;11311;52.192;20.900;2023-06-14T01:38:37;10.93;;;8.45;;
22284;SDS011;11311;52.192;20.900;2023-06-14T01:41:07;11.05;;;8.73;;
22284;SDS011;11311;52.192;20.900;2023-06-14T01:43:36;10.75;;;8.52;;
22284;SDS011;11311;52.192;20.900;2023-06-14T01:46:06;9.35;;;8.40;;
22284;SDS011;11311;52.192;20.900;2023-06-14T01:48:35;11.55;;;8.55;;
22284;SDS011;11311;52.192;20.900;2023-06-14T01:51:05;9.23;;;8.33;;
22284;SDS011;11311;52.192;20.900;2023-06-14T01:53:34;9.90;;;8.60;;
22284;SDS011;11311;52.192;20.900;2023-06-14T01:56:05;10.35;;;9.32;;
22284;SDS011;11311;52.192;20.900;2023-06-14T01:58:34;9.60;;;7.32;;
22284;SDS011;11311;52.192;20.900;2023-06-14T02:01:05;10.15;;;8.25;;
22284;SDS011;11311;52.192;20.900;2023-06-14T02:03:38;9.40;;;8.60;;
22284;SDS011;11311;52.192;20.900;2023-06-14T02:06:08;15.73;;;8.43;;
22284;SDS011;11311;52.192;20.900;2023-06-14T02:08:39;10.15;;;8.35;;
22284;SDS011;11311;52.192;20.900;2023-06-14T02:11:09;13.32;;;9.23;;
22284;SDS011;11311;52.192;20.900;2023-06-14T02:13:38;10.15;;;8.30;;
22284;SDS011;11311;52.192;20.900;2023-06-14T02:16:07;15.02;;;8.88;;
22284;SDS011;11311;52.192;20.900;2023-06-14T02:18:37;9.80;;;8.50;;
22284;SDS011;11311;52.192;20.900;2023-06-14T02:21:08;15.32;;;9.75;;
22284;SDS011;11311;52.192;20.900;2023-06-14T02:23:37;12.27;;;9.60;;
22284;SDS011;11311;52.192;20.900;2023-06-14T02:26:07;12.93;;;9.60;;
22284;SDS011;11311;52.192;20.900;2023-06-14T02:28:37;10.32;;;9.32;;
22284;SDS011;11311;52.192;20.900;2023-06-14T02:31:08;9.77;;;8.98;;
22284;SDS011;11311;52.192;20.900;2023-06-14T02:33:38;10.23;;;9.00;;
22284;SDS011;11311;52.192;20.900;2023-06-14T02:36:07;12.32;;;9.23;;
22284;SDS011;11311;52.192;20.900;2023-06-14T02:38:36;11.60;;;9.27;;
22284;SDS011;11311;52.192;20.900;2023-06-14T02:41:05;11.40;;;8.85;;
22284;SDS011;11311;52.192;20.900;2023-06-14T02:43:33;10.27;;;9.15;;
22284;SDS011;11311;52.192;20.900;2023-06-14T02:46:07;14.18;;;9.13;;
22284;SDS011;11311;52.192;20.900;2023-06-14T02:48:36;12.68;;;9.23;;
22284;SDS011;11311;52.192;20.900;2023-06-14T02:51:08;10.93;;;8.13;;
22284;SDS011;11311;52.192;20.900;2023-06-14T02:53:37;11.52;;;8.63;;
22284;SDS011;11311;52.192;20.900;2023-06-14T02:58:36;10.63;;;9.07;;
22284;SDS011;11311;52.192;20.900;2023-06-14T03:01:09;8.88;;;8.07;;
22284;SDS011;11311;52.192;20.900;2023-06-14T03:03:40;10.32;;;9.15;;
22284;SDS011;11311;52.192;20.900;2023-06-14T03:06:09;10.30;;;8.10;;
22284;SDS011;11311;52.192;20.900;2023-06-14T03:08:43;10.75;;;8.98;;
22284;SDS011;11311;52.192;20.900;2023-06-14T03:11:15;12.40;;;9.70;;
22284;SDS011;11311;52.192;20.900;2023-06-14T03:13:48;10.93;;;9.90;;
22284;SDS011;11311;52.192;20.900;2023-06-14T03:16:20;10.38;;;9.27;;
22284;SDS011;11311;52.192;20.900;2023-06-14T03:18:52;10.80;;;9.68;;
22284;SDS011;11311;52.192;20.900;2023-06-14T03:21:23;11.25;;;10.18;;
22284;SDS011;11311;52.192;20.900;2023-06-14T03:23:56;10.23;;;9.18;;
22284;SDS011;11311;52.192;20.900;2023-06-14T03:26:25;12.82;;;9.00;;
22284;SDS011;11311;52.192;20.900;2023-06-14T03:28:55;10.10;;;9.10;;
22284;SDS011;11311;52.192;20.900;2023-06-14T03:31:28;9.32;;;8.48;;
22284;SDS011;11311;52.192;20.900;2023-06-14T03:34:02;12.07;;;8.85;;
22284;SDS011;11311;52.192;20.900;2023-06-14T03:36:31;12.00;;;9.80;;
22284;SDS011;11311;52.192;20.900;2023-06-14T03:39:00;11.75;;;9.38;;
22284;SDS011;11311;52.192;20.900;2023-06-14T03:41:30;11.75;;;8.77;;
22284;SDS011;11311;52.192;20.900;2023-06-14T03:44:00;10.13;;;9.15;;
22284;SDS011;11311;52.192;20.900;2023-06-14T03:46:30;10.63;;;7.93;;
22284;SDS011;11311;52.192;20.900;2023-06-14T03:49:00;10.68;;;8.50;;
22284;SDS011;11311;52.192;20.900;2023-06-14T03:51:30;10.25;;;9.10;;
22284;SDS011;11311;52.192;20.900;2023-06-14T03:53:59;12.77;;;7.53;;
22284;SDS011;11311;52.192;20.900;2023-06-14T03:56:49;9.13;;;8.18;;
22284;SDS011;11311;52.192;20.900;2023-06-14T03:59:18;9.63;;;8.23;;
22284;SDS011;11311;52.192;20.900;2023-06-14T04:01:49;11.88;;;8.80;;
22284;SDS011;11311;52.192;20.900;2023-06-14T04:04:19;8.48;;;7.68;;
22284;SDS011;11311;52.192;20.900;2023-06-14T04:06:49;10.18;;;9.18;;
22284;SDS011;11311;52.192;20.900;2023-06-14T04:09:19;9.80;;;8.80;;
22284;SDS011;11311;52.192;20.900;2023-06-14T04:11:48;15.63;;;9.85;;
22284;SDS011;11311;52.192;20.900;2023-06-14T04:14:17;10.65;;;9.60;;
22284;SDS011;11311;52.192;20.900;2023-06-14T04:16:46;11.88;;;10.10;;
22284;SDS011;11311;52.192;20.900;2023-06-14T04:19:19;10.70;;;9.70;;
22284;SDS011;11311;52.192;20.900;2023-06-14T04:24:17;10.60;;;9.50;;
22284;SDS011;11311;52.192;20.900;2023-06-14T04:26:48;10.10;;;8.95;;
22284;SDS011;11311;52.192;20.900;2023-06-14T04:29:20;12.13;;;9.32;;
22284;SDS011;11311;52.192;20.900;2023-06-14T04:31:57;14.27;;;9.60;;
22284;SDS011;11311;52.192;20.900;2023-06-14T04:34:29;11.52;;;9.10;;
22284;SDS011;11311;52.192;20.900;2023-06-14T04:37:03;9.80;;;8.35;;
22284;SDS011;11311;52.192;20.900;2023-06-14T04:39:37;9.27;;;8.07;;
22284;SDS011;11311;52.192;20.900;2023-06-14T04:42:06;12.02;;;9.50;;
22284;SDS011;11311;52.192;20.900;2023-06-14T04:44:39;11.23;;;10.02;;
22284;SDS011;11311;52.192;20.900;2023-06-14T04:47:08;12.25;;;8.73;;
22284;SDS011;11311;52.192;20.900;2023-06-14T04:49:39;10.48;;;9.02;;
22284;SDS011;11311;52.192;20.900;2023-06-14T04:54:42;12.48;;;8.45;;
22284;SDS011;11311;52.192;20.900;2023-06-14T04:57:16;8.88;;;8.05;;
22284;SDS011;11311;52.192;20.900;2023-06-14T04:59:50;10.18;;;8.70;;
22284;SDS011;11311;52.192;20.900;2023-06-14T05:02:24;8.82;;;8.02;;
22284;SDS011;11311;52.192;20.900;2023-06-14T05:04:56;13.88;;;8.38;;
22284;SDS011;11311;52.192;20.900;2023-06-14T05:07:26;9.88;;;8.32;;
22284;SDS011;11311;52.192;20.900;2023-06-14T05:09:56;11.82;;;8.20;;
22284;SDS011;11311;52.192;20.900;2023-06-14T05:12:26;10.80;;;9.30;;
22284;SDS011;11311;52.192;20.900;2023-06-14T05:14:56;10.35;;;8.95;;
22284;SDS011;11311;52.192;20.900;2023-06-14T05:17:26;12.73;;;8.70;;
22284;SDS011;11311;52.192;20.900;2023-06-14T05:19:57;13.00;;;7.75;;
22284;SDS011;11311;52.192;20.900;2023-06-14T05:22:25;10.00;;;8.32;;
22284;SDS011;11311;52.192;20.900;2023-06-14T05:24:54;11.40;;;7.95;;
22284;SDS011;11311;52.192;20.900;2023-06-14T05:27:23;10.88;;;8.30;;
22284;SDS011;11311;52.192;20.900;2023-06-14T05:29:53;11.17;;;8.23;;
22284;SDS011;11311;52.192;20.900;2023-06-14T05:32:25;12.18;;;8.43;;
22284;SDS011;11311;52.192;20.900;2023-06-14T05:34:54;16.73;;;8.50;;
22284;SDS011;11311;52.192;20.900;2023-06-14T05:37:24;19.13;;;9.18;;
22284;SDS011;11311;52.192;20.900;2023-06-14T05:39:53;11.90;;;8.55;;
22284;SDS011;11311;52.192;20.900;2023-06-14T05:42:22;9.20;;;7.57;;
22284;SDS011;11311;52.192;20.900;2023-06-14T05:44:51;13.65;;;8.40;;
22284;SDS011;11311;52.192;20.900;2023-06-14T05:47:20;10.65;;;7.70;;
22284;SDS011;11311;52.192;20.900;2023-06-14T05:49:49;10.00;;;8.52;;
22284;SDS011;11311;52.192;20.900;2023-06-14T05:52:19;12.02;;;8.82;;
22284;SDS011;11311;52.192;20.900;2023-06-14T05:54:49;13.70;;;8.68;;
22284;SDS011;11311;52.192;20.900;2023-06-14T05:57:17;11.95;;;7.97;;
22284;SDS011;11311;52.192;20.900;2023-06-14T05:59:47;16.15;;;9.25;;
22284;SDS011;11311;52.192;20.900;2023-06-14T06:02:15;13.43;;;8.68;;
22284;SDS011;11311;52.192;20.900;2023-06-14T06:04:44;16.58;;;9.40;;
22284;SDS011;11311;52.192;20.900;2023-06-14T06:09:45;10.63;;;8.70;;
22284;SDS011;11311;52.192;20.900;2023-06-14T06:12:14;18.30;;;9.15;;
22284;SDS011;11311;52.192;20.900;2023-06-14T06:14:43;12.95;;;8.18;;
22284;SDS011;11311;52.192;20.900;2023-06-14T06:17:12;10.60;;;9.02;;
22284;SDS011;11311;52.192;20.900;2023-06-14T06:19:43;11.85;;;7.68;;
22284;SDS011;11311;52.192;20.900;2023-06-14T06:22:12;8.63;;;7.57;;
22284;SDS011;11311;52.192;20.900;2023-06-14T06:24:41;11.93;;;8.40;;
22284;SDS011;11311;52.192;20.900;2023-06-14T06:27:13;13.63;;;7.50;;
22284;SDS011;11311;52.192;20.900;2023-06-14T06:29:42;7.18;;;6.47;;
22284;SDS011;11311;52.192;20.900;2023-06-14T06:32:11;8.60;;;6.90;;
22284;SDS011;11311;52.192;20.900;2023-06-14T06:34:40;7.57;;;6.78;;
22284;SDS011;11311;52.192;20.900;2023-06-14T06:37:09;12.40;;;6.57;;
22284;SDS011;11311;52.192;20.900;2023-06-14T06:39:38;10.60;;;6.50;;
22284;SDS011;11311;52.192;20.900;2023-06-14T06:42:07;10.10;;;6.22;;
22284;SDS011;11311;52.192;20.900;2023-06-14T06:44:38;7.40;;;5.90;;
22284;SDS011;11311;52.192;20.900;2023-06-14T06:47:07;9.32;;;6.70;;
22284;SDS011;11311;52.192;20.900;2023-06-14T06:49:36;14.13;;;6.73;;
22284;SDS011;11311;52.192;20.900;2023-06-14T06:52:06;12.20;;;6.93;;
22284;SDS011;11311;52.192;20.900;2023-06-14T06:54:35;8.95;;;8.02;;
22284;SDS011;11311;52.192;20.900;2023-06-14T06:57:05;12.35;;;6.82;;
22284;SDS011;11311;52.192;20.900;2023-06-14T06:59:35;9.27;;;6.05;;
22284;SDS011;11311;52.192;20.900;2023-06-14T07:02:05;10.90;;;6.13;;
22284;SDS011;11311;52.192;20.900;2023-06-14T07:04:34;9.15;;;5.35;;
22284;SDS011;11311;52.192;20.900;2023-06-14T07:07:04;8.93;;;5.38;;
22284;SDS011;11311;52.192;20.900;2023-06-14T07:09:32;8.05;;;5.57;;
22284;SDS011;11311;52.192;20.900;2023-06-14T07:12:02;6.65;;;5.60;;
22284;SDS011;11311;52.192;20.900;2023-06-14T07:14:31;13.68;;;5.75;;
22284;SDS011;11311;52.192;20.900;2023-06-14T07:17:00;8.27;;;5.65;;
22284;SDS011;11311;52.192;20.900;2023-06-14T07:19:30;9.07;;;6.35;;
22284;SDS011;11311;52.192;20.900;2023-06-14T07:22:00;14.18;;;5.57;;
22284;SDS011;11311;52.192;20.900;2023-06-14T07:26:59;11.98;;;6.05;;
22284;SDS011;11311;52.192;20.900;2023-06-14T07:29:28;7.85;;;6.15;;
22284;SDS011;11311;52.192;20.900;2023-06-14T07:31:57;8.77;;;6.55;;
22284;SDS011;11311;52.192;20.900;2023-06-14T07:34:26;8.35;;;6.18;;
22284;SDS011;11311;52.192;20.900;2023-06-14T07:36:57;9.07;;;5.65;;
22284;SDS011;11311;52.192;20.900;2023-06-14T07:39:26;10.40;;;5.65;;
22284;SDS011;11311;52.192;20.900;2023-06-14T07:41:56;7.32;;;5.20;;
22284;SDS011;11311;52.192;20.900;2023-06-14T07:44:27;10.35;;;5.30;;
22284;SDS011;11311;52.192;20.900;2023-06-14T07:46:58;7.40;;;5.13;;
22284;SDS011;11311;52.192;20.900;2023-06-14T07:49:27;6.93;;;5.13;;
22284;SDS011;11311;52.192;20.900;2023-06-14T07:51:58;12.02;;;4.72;;
22284;SDS011;11311;52.192;20.900;2023-06-14T07:54:27;13.07;;;5.45;;
22284;SDS011;11311;52.192;20.900;2023-06-14T07:56:57;8.50;;;4.57;;
22284;SDS011;11311;52.192;20.900;2023-06-14T07:59:27;6.35;;;5.32;;
22284;SDS011;11311;52.192;20.900;2023-06-14T08:01:56;6.53;;;4.72;;
22284;SDS011;11311;52.192;20.900;2023-06-14T08:04:25;8.55;;;4.63;;
22284;SDS011;11311;52.192;20.900;2023-06-14T08:06:54;10.10;;;4.60;;
22284;SDS011;11311;52.192;20.900;2023-06-14T08:09:24;9.48;;;4.78;;
22284;SDS011;11311;52.192;20.900;2023-06-14T08:11:55;11.40;;;5.07;;
22284;SDS011;11311;52.192;20.900;2023-06-14T08:14:24;16.02;;;6.03;;
22284;SDS011;11311;52.192;20.900;2023-06-14T08:16:52;11.45;;;4.72;;
22284;SDS011;11311;52.192;20.900;2023-06-14T08:21:51;5.57;;;4.45;;
22284;SDS011;11311;52.192;20.900;2023-06-14T08:24:21;9.52;;;5.38;;
22284;SDS011;11311;52.192;20.900;2023-06-14T08:29:22;5.82;;;4.50;;
22284;SDS011;11311;52.192;20.900;2023-06-14T08:31:50;7.22;;;4.40;;
22284;SDS011;11311;52.192;20.900;2023-06-14T08:34:19;12.07;;;4.60;;
22284;SDS011;11311;52.192;20.900;2023-06-14T08:36:50;10.82;;;5.28;;
22284;SDS011;11311;52.192;20.900;2023-06-14T08:39:19;11.15;;;4.72;;
22284;SDS011;11311;52.192;20.900;2023-06-14T08:41:49;13.23;;;4.90;;
22284;SDS011;11311;52.192;20.900;2023-06-14T08:44:20;11.98;;;4.60;;
22284;SDS011;11311;52.192;20.900;2023-06-14T08:46:49;5.45;;;4.90;;
22284;SDS011;11311;52.192;20.900;2023-06-14T08:51:49;12.82;;;4.38;;
22284;SDS011;11311;52.192;20.900;2023-06-14T08:54:19;7.97;;;4.88;;
22284;SDS011;11311;52.192;20.900;2023-06-14T08:56:48;10.20;;;4.78;;
22284;SDS011;11311;52.192;20.900;2023-06-14T08:59:20;7.97;;;5.07;;
22284;SDS011;11311;52.192;20.900;2023-06-14T09:01:49;12.07;;;4.57;;
22284;SDS011;11311;52.192;20.900;2023-06-14T09:04:39;8.52;;;4.20;;
22284;SDS011;11311;52.192;20.900;2023-06-14T09:07:10;6.35;;;4.25;;
22284;SDS011;11311;52.192;20.900;2023-06-14T09:12:29;7.90;;;6.70;;
22284;SDS011;11311;52.192;20.900;2023-06-14T09:15:01;7.13;;;6.20;;
22284;SDS011;11311;52.192;20.900;2023-06-14T09:17:33;12.80;;;6.43;;
22284;SDS011;11311;52.192;20.900;2023-06-14T09:20:03;14.95;;;6.88;;
22284;SDS011;11311;52.192;20.900;2023-06-14T09:22:36;7.10;;;5.00;;
22284;SDS011;11311;52.192;20.900;2023-06-14T09:25:05;12.38;;;5.03;;
22284;SDS011;11311;52.192;20.900;2023-06-14T09:27:48;8.82;;;5.25;;
22284;SDS011;11311;52.192;20.900;2023-06-14T09:30:19;9.48;;;5.75;;
22284;SDS011;11311;52.192;20.900;2023-06-14T09:32:48;15.00;;;5.65;;
22284;SDS011;11311;52.192;20.900;2023-06-14T09:35:19;9.18;;;5.63;;
22284;SDS011;11311;52.192;20.900;2023-06-14T09:37:48;8.68;;;5.97;;
22284;SDS011;11311;52.192;20.900;2023-06-14T09:40:20;10.18;;;5.75;;
22284;SDS011;11311;52.192;20.900;2023-06-14T09:42:50;8.77;;;5.35;;
22284;SDS011;11311;52.192;20.900;2023-06-14T09:45:21;7.82;;;5.22;;
22284;SDS011;11311;52.192;20.900;2023-06-14T09:47:51;6.00;;;5.40;;
22284;SDS011;11311;52.192;20.900;2023-06-14T09:50:32;9.65;;;5.30;;
22284;SDS011;11311;52.192;20.900;2023-06-14T09:53:02;10.65;;;6.88;;
22284;SDS011;11311;52.192;20.900;2023-06-14T09:55:34;9.27;;;6.65;;
22284;SDS011;11311;52.192;20.900;2023-06-14T09:58:05;16.25;;;7.50;;
22284;SDS011;11311;52.192;20.900;2023-06-14T10:03:08;14.15;;;7.05;;
22284;SDS011;11311;52.192;20.900;2023-06-14T10:05:43;10.93;;;5.88;;
22284;SDS011;11311;52.192;20.900;2023-06-14T10:08:13;11.68;;;6.93;;
22284;SDS011;11311;52.192;20.900;2023-06-14T10:10:44;9.57;;;5.65;;
22284;SDS011;11311;52.192;20.900;2023-06-14T10:13:13;9.50;;;6.15;;
22284;SDS011;11311;52.192;20.900;2023-06-14T10:15:45;13.37;;;5.43;;
22284;SDS011;11311;52.192;20.900;2023-06-14T10:18:22;15.13;;;5.88;;
22284;SDS011;11311;52.192;20.900;2023-06-14T10:20:59;7.90;;;4.40;;
22284;SDS011;11311;52.192;20.900;2023-06-14T10:23:37;5.78;;;4.43;;
22284;SDS011;11311;52.192;20.900;2023-06-14T10:26:07;5.65;;;4.10;;
22284;SDS011;11311;52.192;20.900;2023-06-14T10:28:37;8.25;;;4.25;;
22284;SDS011;11311;52.192;20.900;2023-06-14T10:31:08;10.45;;;4.20;;
22284;SDS011;11311;52.192;20.900;2023-06-14T10:33:39;5.90;;;4.00;;
22284;SDS011;11311;52.192;20.900;2023-06-14T10:36:27;10.73;;;4.43;;
22284;SDS011;11311;52.192;20.900;2023-06-14T10:39:03;7.53;;;5.23;;
22284;SDS011;11311;52.192;20.900;2023-06-14T10:41:34;7.32;;;4.38;;
22284;SDS011;11311;52.192;20.900;2023-06-14T10:47:08;10.98;;;4.68;;
22284;SDS011;11311;52.192;20.900;2023-06-14T10:49:40;4.90;;;3.78;;
22284;SDS011;11311;52.192;20.900;2023-06-14T10:52:11;7.93;;;3.45;;
22284;SDS011;11311;52.192;20.900;2023-06-14T10:54:56;5.30;;;3.47;;
22284;SDS011;11311;52.192;20.900;2023-06-14T10:57:28;5.25;;;3.75;;
22284;SDS011;11311;52.192;20.900;2023-06-14T11:00:11;7.90;;;3.78;;
22284;SDS011;11311;52.192;20.900;2023-06-14T11:02:48;6.53;;;3.50;;
22284;SDS011;11311;52.192;20.900;2023-06-14T11:05:23;12.98;;;3.78;;
22284;SDS011;11311;52.192;20.900;2023-06-14T11:08:11;7.22;;;3.75;;
22284;SDS011;11311;52.192;20.900;2023-06-14T11:10:47;5.38;;;3.50;;
22284;SDS011;11311;52.192;20.900;2023-06-14T11:13:16;7.80;;;3.78;;
22284;SDS011;11311;52.192;20.900;2023-06-14T11:15:47;6.75;;;3.63;;
22284;SDS011;11311;52.192;20.900;2023-06-14T11:18:17;11.60;;;3.70;;
22284;SDS011;11311;52.192;20.900;2023-06-14T11:20:51;11.30;;;3.50;;
22284;SDS011;11311;52.192;20.900;2023-06-14T11:23:21;6.10;;;3.40;;
22284;SDS011;11311;52.192;20.900;2023-06-14T11:25:50;6.75;;;3.58;;
22284;SDS011;11311;52.192;20.900;2023-06-14T11:28:19;6.30;;;4.13;;
22284;SDS011;11311;52.192;20.900;2023-06-14T11:30:49;9.80;;;3.80;;
22284;SDS011;11311;52.192;20.900;2023-06-14T11:33:19;5.10;;;3.03;;
22284;SDS011;11311;52.192;20.900;2023-06-14T11:35:48;7.57;;;3.28;;
22284;SDS011;11311;52.192;20.900;2023-06-14T11:38:18;7.43;;;3.15;;
22284;SDS011;11311;52.192;20.900;2023-06-14T11:40:47;7.57;;;3.60;;
22284;SDS011;11311;52.192;20.900;2023-06-14T11:43:17;8.30;;;4.15;;
22284;SDS011;11311;52.192;20.900;2023-06-14T11:45:47;4.88;;;3.35;;
22284;SDS011;11311;52.192;20.900;2023-06-14T11:48:38;4.05;;;3.00;;
22284;SDS011;11311;52.192;20.900;2023-06-14T11:51:07;9.70;;;3.38;;
22284;SDS011;11311;52.192;20.900;2023-06-14T11:53:36;7.73;;;3.03;;
22284;SDS011;11311;52.192;20.900;2023-06-14T11:56:05;8.73;;;3.60;;
22284;SDS011;11311;52.192;20.900;2023-06-14T11:58:34;6.25;;;4.03;;
22284;SDS011;11311;52.192;20.900;2023-06-14T12:01:03;10.70;;;5.00;;
22284;SDS011;11311;52.192;20.900;2023-06-14T12:03:32;6.07;;;4.05;;
22284;SDS011;11311;52.192;20.900;2023-06-14T12:06:07;9.05;;;3.33;;
22284;SDS011;11311;52.192;20.900;2023-06-14T12:08:37;6.82;;;3.78;;
22284;SDS011;11311;52.192;20.900;2023-06-14T12:11:10;5.35;;;2.65;;
22284;SDS011;11311;52.192;20.900;2023-06-14T12:13:40;5.78;;;2.85;;
22284;SDS011;11311;52.192;20.900;2023-06-14T12:16:11;4.85;;;2.30;;
22284;SDS011;11311;52.192;20.900;2023-06-14T12:18:40;10.85;;;3.00;;
22284;SDS011;11311;52.192;20.900;2023-06-14T12:21:12;9.27;;;2.70;;
22284;SDS011;11311;52.192;20.900;2023-06-14T12:23:42;5.97;;;2.80;;
22284;SDS011;11311;52.192;20.900;2023-06-14T12:26:13;11.15;;;2.90;;
22284;SDS011;11311;52.192;20.900;2023-06-14T12:28:43;3.58;;;2.65;;
22284;SDS011;11311;52.192;20.900;2023-06-14T12:31:14;5.15;;;2.38;;
22284;SDS011;11311;52.192;20.900;2023-06-14T12:33:46;4.90;;;1.90;;
22284;SDS011;11311;52.192;20.900;2023-06-14T12:36:19;6.43;;;2.47;;
22284;SDS011;11311;52.192;20.900;2023-06-14T12:38:48;4.53;;;2.70;;
22284;SDS011;11311;52.192;20.900;2023-06-14T12:41:21;6.72;;;2.83;;
22284;SDS011;11311;52.192;20.900;2023-06-14T12:43:51;7.90;;;2.60;;
22284;SDS011;11311;52.192;20.900;2023-06-14T12:46:21;7.70;;;2.75;;
22284;SDS011;11311;52.192;20.900;2023-06-14T12:51:24;6.63;;;2.97;;
22284;SDS011;11311;52.192;20.900;2023-06-14T12:53:53;2.70;;;2.35;;
22284;SDS011;11311;52.192;20.900;2023-06-14T12:56:22;3.70;;;2.90;;
22284;SDS011;11311;52.192;20.900;2023-06-14T12:58:51;6.22;;;2.58;;
22284;SDS011;11311;52.192;20.900;2023-06-14T13:01:20;8.37;;;2.27;;
22284;SDS011;11311;52.192;20.900;2023-06-14T13:03:49;10.30;;;2.63;;
22284;SDS011;11311;52.192;20.900;2023-06-14T13:06:22;6.60;;;2.90;;
22284;SDS011;11311;52.192;20.900;2023-06-14T13:08:51;6.53;;;2.90;;
22284;SDS011;11311;52.192;20.900;2023-06-14T13:11:22;5.75;;;2.78;;
22284;SDS011;11311;52.192;20.900;2023-06-14T13:16:20;8.40;;;2.60;;
22284;SDS011;11311;52.192;20.900;2023-06-14T13:18:49;4.17;;;2.77;;
22284;SDS011;11311;52.192;20.900;2023-06-14T13:21:18;5.87;;;2.80;;
22284;SDS011;11311;52.192;20.900;2023-06-14T13:23:49;4.47;;;2.08;;
22284;SDS011;11311;52.192;20.900;2023-06-14T13:26:18;5.07;;;2.20;;
22284;SDS011;11311;52.192;20.900;2023-06-14T13:28:47;3.13;;;2.00;;
22284;SDS011;11311;52.192;20.900;2023-06-14T13:31:16;4.63;;;1.40;;
22284;SDS011;11311;52.192;20.900;2023-06-14T13:33:46;6.47;;;2.13;;
22284;SDS011;11311;52.192;20.900;2023-06-14T13:36:15;4.40;;;1.60;;
22284;SDS011;11311;52.192;20.900;2023-06-14T13:38:44;3.57;;;2.07;;
22284;SDS011;11311;52.192;20.900;2023-06-14T13:41:17;5.78;;;2.63;;
22284;SDS011;11311;52.192;20.900;2023-06-14T13:43:46;5.57;;;2.10;;
22284;SDS011;11311;52.192;20.900;2023-06-14T13:46:15;5.28;;;2.42;;
22284;SDS011;11311;52.192;20.900;2023-06-14T13:48:44;5.05;;;2.30;;
22284;SDS011;11311;52.192;20.900;2023-06-14T13:51:15;4.78;;;2.10;;
22284;SDS011;11311;52.192;20.900;2023-06-14T13:53:45;7.43;;;2.22;;
22284;SDS011;11311;52.192;20.900;2023-06-14T13:56:17;6.35;;;2.50;;
22284;SDS011;11311;52.192;20.900;2023-06-14T13:58:46;3.53;;;2.10;;
22284;SDS011;11311;52.192;20.900;2023-06-14T14:01:15;4.37;;;2.20;;
22284;SDS011;11311;52.192;20.900;2023-06-14T14:03:45;7.32;;;2.63;;
22284;SDS011;11311;52.192;20.900;2023-06-14T14:06:15;3.40;;;2.17;;
22284;SDS011;11311;52.192;20.900;2023-06-14T14:08:44;4.40;;;2.63;;
22284;SDS011;11311;52.192;20.900;2023-06-14T14:11:13;5.32;;;2.88;;
22284;SDS011;11311;52.192;20.900;2023-06-14T14:16:13;4.97;;;2.30;;
22284;SDS011;11311;52.192;20.900;2023-06-14T14:18:43;5.40;;;2.22;;
22284;SDS011;11311;52.192;20.900;2023-06-14T14:21:13;4.50;;;2.78;;
22284;SDS011;11311;52.192;20.900;2023-06-14T14:23:42;4.72;;;2.78;;
22284;SDS011;11311;52.192;20.900;2023-06-14T14:26:14;3.03;;;2.78;;
22284;SDS011;11311;52.192;20.900;2023-06-14T14:28:44;6.18;;;3.22;;
22284;SDS011;11311;52.192;20.900;2023-06-14T14:31:13;6.75;;;2.97;;
22284;SDS011;11311;52.192;20.900;2023-06-14T14:33:42;6.53;;;3.00;;
22284;SDS011;11311;52.192;20.900;2023-06-14T14:36:12;4.75;;;2.78;;
22284;SDS011;11311;52.192;20.900;2023-06-14T14:38:41;3.28;;;2.67;;
22284;SDS011;11311;52.192;20.900;2023-06-14T14:41:10;3.97;;;2.50;;
22284;SDS011;11311;52.192;20.900;2023-06-14T14:43:39;4.35;;;2.88;;
22284;SDS011;11311;52.192;20.900;2023-06-14T14:46:09;3.80;;;2.55;;
22284;SDS011;11311;52.192;20.900;2023-06-14T14:48:40;4.32;;;2.78;;
22284;SDS011;11311;52.192;20.900;2023-06-14T14:51:09;4.95;;;2.63;;
22284;SDS011;11311;52.192;20.900;2023-06-14T14:53:38;4.95;;;3.10;;
22284;SDS011;11311;52.192;20.900;2023-06-14T14:56:08;3.83;;;3.30;;
22284;SDS011;11311;52.192;20.900;2023-06-14T14:58:37;10.13;;;2.40;;
22284;SDS011;11311;52.192;20.900;2023-06-14T15:01:06;6.22;;;3.40;;
22284;SDS011;11311;52.192;20.900;2023-06-14T15:03:36;8.43;;;3.55;;
22284;SDS011;11311;52.192;20.900;2023-06-14T15:06:24;6.30;;;2.80;;
22284;SDS011;11311;52.192;20.900;2023-06-14T15:08:53;3.83;;;3.47;;
22284;SDS011;11311;52.192;20.900;2023-06-14T15:11:22;4.68;;;3.42;;
22284;SDS011;11311;52.192;20.900;2023-06-14T15:13:51;3.05;;;2.70;;
22284;SDS011;11311;52.192;20.900;2023-06-14T15:16:20;5.90;;;3.47;;
22284;SDS011;11311;52.192;20.900;2023-06-14T15:18:50;5.57;;;2.90;;
22284;SDS011;11311;52.192;20.900;2023-06-14T15:21:19;4.07;;;3.03;;
22284;SDS011;11311;52.192;20.900;2023-06-14T15:23:49;4.10;;;3.38;;
22284;SDS011;11311;52.192;20.900;2023-06-14T15:26:20;7.80;;;3.38;;
22284;SDS011;11311;52.192;20.900;2023-06-14T15:28:51;4.38;;;3.25;;
22284;SDS011;11311;52.192;20.900;2023-06-14T15:33:55;8.20;;;3.25;;
22284;SDS011;11311;52.192;20.900;2023-06-14T15:36:24;7.93;;;3.38;;